Fayetteville, NY (13066)

6:49 AM EST on December 29, 2014 (GMT -0500)
KC2HUX - Fayetteville Heights | Change Station
CLOSE
Current Station
Personal Weather Station
Location: Fayetteville, NY
Elevation: 730 ft
Nearby Weather Stations

Elev 730 ft 43.03 °N, 75.98 °W | Updated 1 second ago

Overcast
Overcast
31.3 °F
Feels Like 31 °F
N
2.0
Wind Variable Wind from West
Gusts 5.0 mph

Today
High -- | Low -- °F
--% Chance of Precip.
Yesterday
High -- | Low -- °F
Precip. -- in
7:35 AM 4:37 PM
First Quarter, 58% visible
Pressure 30.16 in
Visibility 9.0 miles
Clouds Mostly Cloudy 2700 ft
Overcast 3200 ft
Windchill 31 °F
Dew Point 26 °F
Humidity 79%
Rainfall 0.00 in
Snow Depth Not available.
UV 0 out of 12
Pollen .10 out of 12
Air Quality Not available.
Flu Activity Not available.
METAR KSYR 291054Z 30006KT 9SM -SN BKN027 OVC032 M01/M04 A3015 RMK AO2 SNB43 SLP212 P0000 T10061044

More Conditions Fewer Conditions

Pressure 30.16 in
Visibility 9.0 miles
Clouds Mostly Cloudy 2700 ft
Overcast 3200 ft
Windchill 31 °F
Dew Point 26 °F
Humidity 79%
Rainfall 0.00 in
Snow Depth Not available.
UV 0 out of 12
Pollen .10 out of 12
Air Quality Not available.
Flu Activity Not available.
METAR KSYR 291054Z 30006KT 9SM -SN BKN027 OVC032 M01/M04 A3015 RMK AO2 SNB43 SLP212 P0000 T10061044

More Conditions Fewer Conditions

10-Day Weather Forecast

Almanac

Astronomy

Dec. 29, 2014 Rise Set
Actual Time
Civil Twilight
Nautical Twilight
Astronomical Twilight
Moon
Length of Visible Light
Length of Day
Tomorrow will be .
, % of the Moon is Illuminated

Today's Extremes

State Highs State Lows

Community

WunderPhotos

Upload Photos

1,781,571 photos uploaded!

WunderBlogs® & News

Nearby

Air Quality

  Air Quality AQ Index Pollutant
Not available.

Snow Depth

Station Depth Elevation

Earthquake Activity

City Distance Mag. Time & Date
Minimum magnitude displayed is 2.5.

Coastal Water Temperatures

Place Temperature

Nearby Weather Stations